sensor_id;sensor_type;location;lat;lon;timestamp;P1;durP1;ratioP1;P2;durP2;ratioP2
11222;SDS011;5668;52.012;8.724;2022-12-24T00:02:06;6.40;;;3.13;;
11222;SDS011;5668;52.012;8.724;2022-12-24T00:04:33;6.93;;;2.77;;
11222;SDS011;5668;52.012;8.724;2022-12-24T00:07:01;5.20;;;3.13;;
11222;SDS011;5668;52.012;8.724;2022-12-24T00:09:29;6.00;;;3.00;;
11222;SDS011;5668;52.012;8.724;2022-12-24T00:11:56;5.73;;;2.73;;
11222;SDS011;5668;52.012;8.724;2022-12-24T00:14:23;7.03;;;2.97;;
11222;SDS011;5668;52.012;8.724;2022-12-24T00:16:50;6.90;;;2.93;;
11222;SDS011;5668;52.012;8.724;2022-12-24T00:19:18;5.97;;;2.70;;
11222;SDS011;5668;52.012;8.724;2022-12-24T00:21:45;5.47;;;2.93;;
11222;SDS011;5668;52.012;8.724;2022-12-24T00:24:13;5.83;;;2.80;;
11222;SDS011;5668;52.012;8.724;2022-12-24T00:26:41;6.40;;;2.50;;
11222;SDS011;5668;52.012;8.724;2022-12-24T00:29:08;5.30;;;2.67;;
11222;SDS011;5668;52.012;8.724;2022-12-24T00:31:37;5.57;;;2.67;;
11222;SDS011;5668;52.012;8.724;2022-12-24T00:34:04;6.77;;;2.67;;
11222;SDS011;5668;52.012;8.724;2022-12-24T00:36:32;4.70;;;2.70;;
11222;SDS011;5668;52.012;8.724;2022-12-24T00:39:00;5.07;;;2.10;;
11222;SDS011;5668;52.012;8.724;2022-12-24T00:41:29;5.17;;;2.20;;
11222;SDS011;5668;52.012;8.724;2022-12-24T00:43:57;5.97;;;2.23;;
11222;SDS011;5668;52.012;8.724;2022-12-24T00:46:27;6.17;;;2.17;;
11222;SDS011;5668;52.012;8.724;2022-12-24T00:48:56;5.90;;;2.20;;
11222;SDS011;5668;52.012;8.724;2022-12-24T00:51:23;6.40;;;1.93;;
11222;SDS011;5668;52.012;8.724;2022-12-24T00:53:51;4.37;;;1.97;;
11222;SDS011;5668;52.012;8.724;2022-12-24T00:56:19;6.00;;;2.00;;
11222;SDS011;5668;52.012;8.724;2022-12-24T00:58:48;5.53;;;2.10;;
11222;SDS011;5668;52.012;8.724;2022-12-24T01:01:16;5.93;;;2.00;;
11222;SDS011;5668;52.012;8.724;2022-12-24T01:03:43;5.17;;;2.00;;
11222;SDS011;5668;52.012;8.724;2022-12-24T01:06:12;8.60;;;2.27;;
11222;SDS011;5668;52.012;8.724;2022-12-24T01:08:39;4.73;;;2.23;;
11222;SDS011;5668;52.012;8.724;2022-12-24T01:11:07;6.53;;;2.50;;
11222;SDS011;5668;52.012;8.724;2022-12-24T01:13:36;5.90;;;2.57;;
11222;SDS011;5668;52.012;8.724;2022-12-24T01:16:10;7.70;;;2.90;;
11222;SDS011;5668;52.012;8.724;2022-12-24T01:18:40;5.27;;;2.20;;
11222;SDS011;5668;52.012;8.724;2022-12-24T01:21:07;5.97;;;2.53;;
11222;SDS011;5668;52.012;8.724;2022-12-24T01:23:35;7.50;;;2.43;;
11222;SDS011;5668;52.012;8.724;2022-12-24T01:26:03;4.07;;;2.30;;
11222;SDS011;5668;52.012;8.724;2022-12-24T01:28:31;6.83;;;2.00;;
11222;SDS011;5668;52.012;8.724;2022-12-24T01:30:58;4.87;;;2.27;;
11222;SDS011;5668;52.012;8.724;2022-12-24T01:33:28;7.10;;;2.10;;
11222;SDS011;5668;52.012;8.724;2022-12-24T01:35:55;6.23;;;2.40;;
11222;SDS011;5668;52.012;8.724;2022-12-24T01:38:22;6.97;;;2.47;;
11222;SDS011;5668;52.012;8.724;2022-12-24T01:40:49;7.07;;;2.83;;
11222;SDS011;5668;52.012;8.724;2022-12-24T01:43:34;8.13;;;2.60;;
11222;SDS011;5668;52.012;8.724;2022-12-24T01:46:01;8.27;;;3.17;;
11222;SDS011;5668;52.012;8.724;2022-12-24T01:48:35;7.37;;;2.67;;
11222;SDS011;5668;52.012;8.724;2022-12-24T01:51:06;13.70;;;2.93;;
11222;SDS011;5668;52.012;8.724;2022-12-24T01:53:42;10.20;;;2.77;;
11222;SDS011;5668;52.012;8.724;2022-12-24T01:56:13;8.37;;;2.77;;
11222;SDS011;5668;52.012;8.724;2022-12-24T01:58:42;9.90;;;3.23;;
11222;SDS011;5668;52.012;8.724;2022-12-24T02:01:13;9.90;;;2.77;;
11222;SDS011;5668;52.012;8.724;2022-12-24T02:03:41;7.53;;;2.70;;
11222;SDS011;5668;52.012;8.724;2022-12-24T02:06:09;9.63;;;3.03;;
11222;SDS011;5668;52.012;8.724;2022-12-24T02:08:40;10.53;;;3.57;;
11222;SDS011;5668;52.012;8.724;2022-12-24T02:11:08;9.53;;;3.47;;
11222;SDS011;5668;52.012;8.724;2022-12-24T02:13:37;13.07;;;4.07;;
11222;SDS011;5668;52.012;8.724;2022-12-24T02:16:07;14.53;;;3.63;;
11222;SDS011;5668;52.012;8.724;2022-12-24T02:18:47;9.97;;;4.30;;
11222;SDS011;5668;52.012;8.724;2022-12-24T02:21:25;11.33;;;3.83;;
11222;SDS011;5668;52.012;8.724;2022-12-24T02:27:17;17.33;;;5.03;;
11222;SDS011;5668;52.012;8.724;2022-12-24T02:30:06;11.77;;;4.97;;
11222;SDS011;5668;52.012;8.724;2022-12-24T02:35:52;14.40;;;4.77;;
11222;SDS011;5668;52.012;8.724;2022-12-24T02:38:25;11.00;;;4.27;;
11222;SDS011;5668;52.012;8.724;2022-12-24T02:40:58;15.77;;;4.90;;
11222;SDS011;5668;52.012;8.724;2022-12-24T02:43:31;14.87;;;4.90;;
11222;SDS011;5668;52.012;8.724;2022-12-24T02:46:02;17.93;;;5.97;;
11222;SDS011;5668;52.012;8.724;2022-12-24T02:48:33;20.63;;;5.20;;
11222;SDS011;5668;52.012;8.724;2022-12-24T02:51:03;18.07;;;5.53;;
11222;SDS011;5668;52.012;8.724;2022-12-24T02:53:33;19.20;;;6.07;;
11222;SDS011;5668;52.012;8.724;2022-12-24T02:58:53;22.50;;;6.40;;
11222;SDS011;5668;52.012;8.724;2022-12-24T03:01:37;17.23;;;5.67;;
11222;SDS011;5668;52.012;8.724;2022-12-24T03:04:17;17.73;;;6.37;;
11222;SDS011;5668;52.012;8.724;2022-12-24T03:07:05;16.40;;;6.00;;
11222;SDS011;5668;52.012;8.724;2022-12-24T03:09:43;19.27;;;5.17;;
11222;SDS011;5668;52.012;8.724;2022-12-24T03:12:27;16.17;;;5.60;;
11222;SDS011;5668;52.012;8.724;2022-12-24T03:14:58;18.30;;;5.17;;
11222;SDS011;5668;52.012;8.724;2022-12-24T03:17:28;13.10;;;4.70;;
11222;SDS011;5668;52.012;8.724;2022-12-24T03:19:59;11.37;;;5.10;;
11222;SDS011;5668;52.012;8.724;2022-12-24T03:22:28;16.67;;;5.17;;
11222;SDS011;5668;52.012;8.724;2022-12-24T03:24:57;14.03;;;4.77;;
11222;SDS011;5668;52.012;8.724;2022-12-24T03:27:24;17.97;;;5.73;;
11222;SDS011;5668;52.012;8.724;2022-12-24T03:29:53;19.07;;;5.60;;
11222;SDS011;5668;52.012;8.724;2022-12-24T03:32:22;17.93;;;6.27;;
11222;SDS011;5668;52.012;8.724;2022-12-24T03:34:51;18.43;;;6.13;;
11222;SDS011;5668;52.012;8.724;2022-12-24T03:37:19;16.73;;;5.57;;
11222;SDS011;5668;52.012;8.724;2022-12-24T03:39:46;17.37;;;5.30;;
11222;SDS011;5668;52.012;8.724;2022-12-24T03:42:13;17.47;;;5.83;;
11222;SDS011;5668;52.012;8.724;2022-12-24T03:44:41;18.77;;;6.10;;
11222;SDS011;5668;52.012;8.724;2022-12-24T03:47:08;23.23;;;5.70;;
11222;SDS011;5668;52.012;8.724;2022-12-24T03:49:35;21.53;;;6.30;;
11222;SDS011;5668;52.012;8.724;2022-12-24T03:52:04;14.57;;;4.57;;
11222;SDS011;5668;52.012;8.724;2022-12-24T03:54:31;22.17;;;5.20;;
11222;SDS011;5668;52.012;8.724;2022-12-24T03:56:58;18.07;;;4.60;;
11222;SDS011;5668;52.012;8.724;2022-12-24T03:59:25;21.90;;;5.30;;
11222;SDS011;5668;52.012;8.724;2022-12-24T04:01:53;17.30;;;5.00;;
11222;SDS011;5668;52.012;8.724;2022-12-24T04:04:20;18.37;;;5.40;;
11222;SDS011;5668;52.012;8.724;2022-12-24T04:06:47;16.50;;;5.20;;
11222;SDS011;5668;52.012;8.724;2022-12-24T04:09:16;18.53;;;4.50;;
11222;SDS011;5668;52.012;8.724;2022-12-24T04:11:43;18.73;;;5.70;;
11222;SDS011;5668;52.012;8.724;2022-12-24T04:14:10;17.20;;;5.47;;
11222;SDS011;5668;52.012;8.724;2022-12-24T04:16:37;20.07;;;5.53;;
11222;SDS011;5668;52.012;8.724;2022-12-24T04:19:04;21.77;;;5.73;;
11222;SDS011;5668;52.012;8.724;2022-12-24T04:21:32;17.67;;;5.67;;
11222;SDS011;5668;52.012;8.724;2022-12-24T04:23:59;18.37;;;5.83;;
11222;SDS011;5668;52.012;8.724;2022-12-24T04:26:27;18.27;;;5.60;;
11222;SDS011;5668;52.012;8.724;2022-12-24T04:28:55;24.37;;;6.07;;
11222;SDS011;5668;52.012;8.724;2022-12-24T04:31:22;20.77;;;5.37;;
11222;SDS011;5668;52.012;8.724;2022-12-24T04:33:49;17.77;;;5.90;;
11222;SDS011;5668;52.012;8.724;2022-12-24T04:36:17;22.97;;;6.03;;
11222;SDS011;5668;52.012;8.724;2022-12-24T04:38:45;18.87;;;5.90;;
11222;SDS011;5668;52.012;8.724;2022-12-24T04:41:14;15.33;;;5.43;;
11222;SDS011;5668;52.012;8.724;2022-12-24T04:43:43;18.57;;;5.67;;
11222;SDS011;5668;52.012;8.724;2022-12-24T04:46:12;21.10;;;5.70;;
11222;SDS011;5668;52.012;8.724;2022-12-24T04:48:41;17.13;;;5.30;;
11222;SDS011;5668;52.012;8.724;2022-12-24T04:51:09;16.83;;;5.13;;
11222;SDS011;5668;52.012;8.724;2022-12-24T04:53:37;22.03;;;5.90;;
11222;SDS011;5668;52.012;8.724;2022-12-24T04:56:06;19.07;;;5.27;;
11222;SDS011;5668;52.012;8.724;2022-12-24T04:58:35;18.30;;;5.53;;
11222;SDS011;5668;52.012;8.724;2022-12-24T05:01:04;20.13;;;5.47;;
11222;SDS011;5668;52.012;8.724;2022-12-24T05:03:32;24.37;;;5.07;;
11222;SDS011;5668;52.012;8.724;2022-12-24T05:06:00;17.37;;;5.00;;
11222;SDS011;5668;52.012;8.724;2022-12-24T05:08:27;18.87;;;5.67;;
11222;SDS011;5668;52.012;8.724;2022-12-24T05:10:55;21.50;;;5.70;;
11222;SDS011;5668;52.012;8.724;2022-12-24T05:13:23;19.07;;;5.20;;
11222;SDS011;5668;52.012;8.724;2022-12-24T05:15:50;21.40;;;5.43;;
11222;SDS011;5668;52.012;8.724;2022-12-24T05:18:19;16.90;;;5.00;;
11222;SDS011;5668;52.012;8.724;2022-12-24T05:20:47;19.93;;;5.40;;
11222;SDS011;5668;52.012;8.724;2022-12-24T05:23:15;16.70;;;4.93;;
11222;SDS011;5668;52.012;8.724;2022-12-24T05:26:01;22.83;;;5.63;;
11222;SDS011;5668;52.012;8.724;2022-12-24T05:28:48;16.20;;;4.60;;
11222;SDS011;5668;52.012;8.724;2022-12-24T05:31:17;21.93;;;5.70;;
11222;SDS011;5668;52.012;8.724;2022-12-24T05:33:46;19.50;;;5.13;;
11222;SDS011;5668;52.012;8.724;2022-12-24T05:36:14;23.20;;;5.93;;
11222;SDS011;5668;52.012;8.724;2022-12-24T05:38:41;17.67;;;5.73;;
11222;SDS011;5668;52.012;8.724;2022-12-24T05:41:08;23.20;;;5.70;;
11222;SDS011;5668;52.012;8.724;2022-12-24T05:43:36;18.30;;;5.60;;
11222;SDS011;5668;52.012;8.724;2022-12-24T05:46:05;16.47;;;5.27;;
11222;SDS011;5668;52.012;8.724;2022-12-24T05:48:33;21.00;;;5.97;;
11222;SDS011;5668;52.012;8.724;2022-12-24T05:51:04;16.70;;;5.67;;
11222;SDS011;5668;52.012;8.724;2022-12-24T05:53:32;16.73;;;6.13;;
11222;SDS011;5668;52.012;8.724;2022-12-24T05:56:03;19.77;;;5.70;;
11222;SDS011;5668;52.012;8.724;2022-12-24T05:58:31;24.80;;;5.77;;
11222;SDS011;5668;52.012;8.724;2022-12-24T06:00:59;18.87;;;5.83;;
11222;SDS011;5668;52.012;8.724;2022-12-24T06:03:27;22.27;;;5.30;;
11222;SDS011;5668;52.012;8.724;2022-12-24T06:05:59;21.03;;;6.03;;
11222;SDS011;5668;52.012;8.724;2022-12-24T06:08:28;19.27;;;5.43;;
11222;SDS011;5668;52.012;8.724;2022-12-24T06:10:57;18.93;;;5.50;;
11222;SDS011;5668;52.012;8.724;2022-12-24T06:13:27;20.37;;;6.07;;
11222;SDS011;5668;52.012;8.724;2022-12-24T06:15:54;18.87;;;6.43;;
11222;SDS011;5668;52.012;8.724;2022-12-24T06:18:22;19.57;;;5.97;;
11222;SDS011;5668;52.012;8.724;2022-12-24T06:20:49;22.50;;;6.30;;
11222;SDS011;5668;52.012;8.724;2022-12-24T06:23:17;20.63;;;5.77;;
11222;SDS011;5668;52.012;8.724;2022-12-24T06:25:45;19.23;;;5.40;;
11222;SDS011;5668;52.012;8.724;2022-12-24T06:28:13;18.57;;;6.20;;
11222;SDS011;5668;52.012;8.724;2022-12-24T06:30:41;21.23;;;5.97;;
11222;SDS011;5668;52.012;8.724;2022-12-24T06:33:11;18.47;;;6.00;;
11222;SDS011;5668;52.012;8.724;2022-12-24T06:35:38;24.80;;;5.67;;
11222;SDS011;5668;52.012;8.724;2022-12-24T06:38:06;20.60;;;6.30;;
11222;SDS011;5668;52.012;8.724;2022-12-24T06:40:33;21.93;;;6.50;;
11222;SDS011;5668;52.012;8.724;2022-12-24T06:43:04;21.37;;;6.37;;
11222;SDS011;5668;52.012;8.724;2022-12-24T06:45:31;22.23;;;6.57;;
11222;SDS011;5668;52.012;8.724;2022-12-24T06:48:01;19.50;;;6.97;;
11222;SDS011;5668;52.012;8.724;2022-12-24T06:50:33;23.93;;;7.47;;
11222;SDS011;5668;52.012;8.724;2022-12-24T06:53:01;24.37;;;7.37;;
11222;SDS011;5668;52.012;8.724;2022-12-24T06:55:28;19.97;;;6.93;;
11222;SDS011;5668;52.012;8.724;2022-12-24T06:57:55;17.83;;;6.87;;
11222;SDS011;5668;52.012;8.724;2022-12-24T07:00:24;22.13;;;7.50;;
11222;SDS011;5668;52.012;8.724;2022-12-24T07:02:51;22.60;;;8.00;;
11222;SDS011;5668;52.012;8.724;2022-12-24T07:05:18;24.93;;;8.47;;
11222;SDS011;5668;52.012;8.724;2022-12-24T07:07:46;25.13;;;7.43;;
11222;SDS011;5668;52.012;8.724;2022-12-24T07:10:14;20.80;;;7.07;;
11222;SDS011;5668;52.012;8.724;2022-12-24T07:12:42;22.43;;;8.13;;
11222;SDS011;5668;52.012;8.724;2022-12-24T07:15:10;21.40;;;7.63;;
11222;SDS011;5668;52.012;8.724;2022-12-24T07:17:40;24.80;;;8.03;;
11222;SDS011;5668;52.012;8.724;2022-12-24T07:20:09;23.97;;;7.83;;
11222;SDS011;5668;52.012;8.724;2022-12-24T07:22:40;18.03;;;7.00;;
11222;SDS011;5668;52.012;8.724;2022-12-24T07:25:07;19.13;;;8.23;;
11222;SDS011;5668;52.012;8.724;2022-12-24T07:27:35;21.13;;;7.70;;
11222;SDS011;5668;52.012;8.724;2022-12-24T07:30:02;20.97;;;8.17;;
11222;SDS011;5668;52.012;8.724;2022-12-24T07:32:30;19.17;;;7.00;;
11222;SDS011;5668;52.012;8.724;2022-12-24T07:34:59;20.17;;;7.13;;
11222;SDS011;5668;52.012;8.724;2022-12-24T07:37:26;18.63;;;7.13;;
11222;SDS011;5668;52.012;8.724;2022-12-24T07:39:54;17.90;;;6.63;;
11222;SDS011;5668;52.012;8.724;2022-12-24T07:42:21;16.40;;;6.77;;
11222;SDS011;5668;52.012;8.724;2022-12-24T07:44:48;16.60;;;7.03;;
11222;SDS011;5668;52.012;8.724;2022-12-24T07:47:15;18.23;;;8.20;;
11222;SDS011;5668;52.012;8.724;2022-12-24T07:49:43;19.33;;;9.23;;
11222;SDS011;5668;52.012;8.724;2022-12-24T07:52:11;22.20;;;9.53;;
11222;SDS011;5668;52.012;8.724;2022-12-24T07:54:38;24.17;;;10.73;;
11222;SDS011;5668;52.012;8.724;2022-12-24T07:57:06;20.70;;;10.50;;
11222;SDS011;5668;52.012;8.724;2022-12-24T07:59:33;23.13;;;11.20;;
11222;SDS011;5668;52.012;8.724;2022-12-24T08:02:00;24.60;;;11.60;;
11222;SDS011;5668;52.012;8.724;2022-12-24T08:04:30;22.40;;;12.73;;
11222;SDS011;5668;52.012;8.724;2022-12-24T08:07:00;23.00;;;12.30;;
11222;SDS011;5668;52.012;8.724;2022-12-24T08:09:30;19.77;;;10.80;;
11222;SDS011;5668;52.012;8.724;2022-12-24T08:11:58;24.00;;;11.50;;
11222;SDS011;5668;52.012;8.724;2022-12-24T08:14:26;20.27;;;10.93;;
11222;SDS011;5668;52.012;8.724;2022-12-24T08:16:53;22.77;;;10.97;;
11222;SDS011;5668;52.012;8.724;2022-12-24T08:19:20;20.27;;;11.00;;
11222;SDS011;5668;52.012;8.724;2022-12-24T08:21:48;17.13;;;9.77;;
11222;SDS011;5668;52.012;8.724;2022-12-24T08:24:15;14.73;;;8.50;;
11222;SDS011;5668;52.012;8.724;2022-12-24T08:26:44;16.23;;;8.27;;
11222;SDS011;5668;52.012;8.724;2022-12-24T08:29:11;11.50;;;6.97;;
11222;SDS011;5668;52.012;8.724;2022-12-24T08:31:38;16.03;;;7.20;;
11222;SDS011;5668;52.012;8.724;2022-12-24T08:34:06;10.90;;;6.73;;
11222;SDS011;5668;52.012;8.724;2022-12-24T08:36:34;15.03;;;7.37;;
11222;SDS011;5668;52.012;8.724;2022-12-24T08:39:02;11.57;;;6.63;;
11222;SDS011;5668;52.012;8.724;2022-12-24T08:41:29;10.17;;;5.30;;
11222;SDS011;5668;52.012;8.724;2022-12-24T08:43:58;9.50;;;5.77;;
11222;SDS011;5668;52.012;8.724;2022-12-24T08:46:25;10.87;;;5.40;;
11222;SDS011;5668;52.012;8.724;2022-12-24T08:48:52;10.53;;;6.97;;
11222;SDS011;5668;52.012;8.724;2022-12-24T08:51:19;10.93;;;6.90;;
11222;SDS011;5668;52.012;8.724;2022-12-24T08:53:47;19.27;;;9.77;;
11222;SDS011;5668;52.012;8.724;2022-12-24T08:56:15;17.80;;;9.70;;
11222;SDS011;5668;52.012;8.724;2022-12-24T08:58:42;18.33;;;10.93;;
11222;SDS011;5668;52.012;8.724;2022-12-24T09:01:11;22.33;;;11.93;;
11222;SDS011;5668;52.012;8.724;2022-12-24T09:03:41;21.03;;;12.33;;
11222;SDS011;5668;52.012;8.724;2022-12-24T09:06:08;20.00;;;11.20;;
11222;SDS011;5668;52.012;8.724;2022-12-24T09:08:35;17.13;;;10.87;;
11222;SDS011;5668;52.012;8.724;2022-12-24T09:11:04;16.07;;;8.33;;
11222;SDS011;5668;52.012;8.724;2022-12-24T09:13:32;12.10;;;7.03;;
11222;SDS011;5668;52.012;8.724;2022-12-24T09:15:59;10.53;;;6.63;;
11222;SDS011;5668;52.012;8.724;2022-12-24T09:18:28;8.53;;;5.33;;
11222;SDS011;5668;52.012;8.724;2022-12-24T09:20:59;10.27;;;5.27;;
11222;SDS011;5668;52.012;8.724;2022-12-24T09:23:26;9.63;;;5.57;;
11222;SDS011;5668;52.012;8.724;2022-12-24T09:25:54;10.10;;;5.77;;
11222;SDS011;5668;52.012;8.724;2022-12-24T09:28:21;7.80;;;5.40;;
11222;SDS011;5668;52.012;8.724;2022-12-24T09:30:56;8.60;;;5.37;;
11222;SDS011;5668;52.012;8.724;2022-12-24T09:33:24;11.13;;;6.70;;
11222;SDS011;5668;52.012;8.724;2022-12-24T09:35:53;18.77;;;7.83;;
11222;SDS011;5668;52.012;8.724;2022-12-24T09:38:20;17.13;;;8.87;;
11222;SDS011;5668;52.012;8.724;2022-12-24T09:40:48;16.90;;;8.70;;
11222;SDS011;5668;52.012;8.724;2022-12-24T09:43:18;21.00;;;8.57;;
11222;SDS011;5668;52.012;8.724;2022-12-24T09:45:49;19.97;;;8.53;;
11222;SDS011;5668;52.012;8.724;2022-12-24T09:48:27;24.27;;;9.67;;
11222;SDS011;5668;52.012;8.724;2022-12-24T09:50:58;17.77;;;8.87;;
11222;SDS011;5668;52.012;8.724;2022-12-24T09:53:33;17.83;;;9.30;;
11222;SDS011;5668;52.012;8.724;2022-12-24T09:56:08;23.70;;;9.40;;
11222;SDS011;5668;52.012;8.724;2022-12-24T09:58:38;19.63;;;9.30;;
11222;SDS011;5668;52.012;8.724;2022-12-24T10:01:09;22.87;;;10.50;;
11222;SDS011;5668;52.012;8.724;2022-12-24T10:03:39;18.13;;;9.70;;
11222;SDS011;5668;52.012;8.724;2022-12-24T10:06:09;21.23;;;9.93;;
11222;SDS011;5668;52.012;8.724;2022-12-24T10:08:42;24.13;;;9.73;;
11222;SDS011;5668;52.012;8.724;2022-12-24T10:11:22;18.80;;;9.40;;
11222;SDS011;5668;52.012;8.724;2022-12-24T10:13:57;16.80;;;9.53;;
11222;SDS011;5668;52.012;8.724;2022-12-24T10:16:35;22.87;;;9.47;;
11222;SDS011;5668;52.012;8.724;2022-12-24T10:19:12;17.27;;;9.10;;
11222;SDS011;5668;52.012;8.724;2022-12-24T10:21:47;25.37;;;10.03;;
11222;SDS011;5668;52.012;8.724;2022-12-24T10:24:23;22.57;;;10.87;;
11222;SDS011;5668;52.012;8.724;2022-12-24T10:26:55;18.43;;;8.90;;
11222;SDS011;5668;52.012;8.724;2022-12-24T10:29:26;17.97;;;8.70;;
11222;SDS011;5668;52.012;8.724;2022-12-24T10:31:58;16.57;;;8.47;;
11222;SDS011;5668;52.012;8.724;2022-12-24T10:34:35;21.63;;;9.17;;
11222;SDS011;5668;52.012;8.724;2022-12-24T10:37:10;18.97;;;8.53;;
11222;SDS011;5668;52.012;8.724;2022-12-24T10:39:42;22.97;;;7.97;;
11222;SDS011;5668;52.012;8.724;2022-12-24T10:42:09;18.50;;;7.63;;
11222;SDS011;5668;52.012;8.724;2022-12-24T10:44:38;16.73;;;7.27;;
11222;SDS011;5668;52.012;8.724;2022-12-24T10:47:05;19.50;;;7.47;;
11222;SDS011;5668;52.012;8.724;2022-12-24T10:49:35;17.90;;;6.93;;
11222;SDS011;5668;52.012;8.724;2022-12-24T10:52:10;15.87;;;6.47;;
11222;SDS011;5668;52.012;8.724;2022-12-24T10:57:37;20.57;;;6.33;;
11222;SDS011;5668;52.012;8.724;2022-12-24T11:00:06;14.30;;;6.57;;
11222;SDS011;5668;52.012;8.724;2022-12-24T11:02:43;15.30;;;5.67;;
11222;SDS011;5668;52.012;8.724;2022-12-24T11:05:26;16.97;;;5.93;;
11222;SDS011;5668;52.012;8.724;2022-12-24T11:07:59;15.67;;;6.10;;
11222;SDS011;5668;52.012;8.724;2022-12-24T11:10:28;15.27;;;5.63;;
11222;SDS011;5668;52.012;8.724;2022-12-24T11:12:56;18.77;;;6.10;;
11222;SDS011;5668;52.012;8.724;2022-12-24T11:15:24;19.23;;;6.43;;
11222;SDS011;5668;52.012;8.724;2022-12-24T11:17:55;13.37;;;5.90;;
11222;SDS011;5668;52.012;8.724;2022-12-24T11:20:28;16.47;;;6.33;;
11222;SDS011;5668;52.012;8.724;2022-12-24T11:22:57;19.87;;;6.13;;
11222;SDS011;5668;52.012;8.724;2022-12-24T11:25:27;17.37;;;6.40;;
11222;SDS011;5668;52.012;8.724;2022-12-24T11:27:56;16.83;;;6.13;;
11222;SDS011;5668;52.012;8.724;2022-12-24T11:30:35;17.70;;;6.33;;
11222;SDS011;5668;52.012;8.724;2022-12-24T11:33:17;15.47;;;5.97;;
11222;SDS011;5668;52.012;8.724;2022-12-24T11:35:45;15.87;;;5.70;;
11222;SDS011;5668;52.012;8.724;2022-12-24T11:38:20;19.97;;;5.70;;
11222;SDS011;5668;52.012;8.724;2022-12-24T11:40:49;16.63;;;6.03;;
11222;SDS011;5668;52.012;8.724;2022-12-24T11:43:29;15.30;;;5.13;;
11222;SDS011;5668;52.012;8.724;2022-12-24T11:46:17;15.23;;;5.53;;
11222;SDS011;5668;52.012;8.724;2022-12-24T11:48:46;14.50;;;4.87;;
11222;SDS011;5668;52.012;8.724;2022-12-24T11:51:28;16.20;;;5.30;;
11222;SDS011;5668;52.012;8.724;2022-12-24T11:53:59;15.33;;;5.40;;
11222;SDS011;5668;52.012;8.724;2022-12-24T11:56:35;18.97;;;6.07;;
11222;SDS011;5668;52.012;8.724;2022-12-24T11:59:11;16.27;;;5.47;;
11222;SDS011;5668;52.012;8.724;2022-12-24T12:01:47;14.13;;;5.20;;
11222;SDS011;5668;52.012;8.724;2022-12-24T12:04:19;14.10;;;5.70;;
11222;SDS011;5668;52.012;8.724;2022-12-24T12:06:49;18.90;;;5.80;;
11222;SDS011;5668;52.012;8.724;2022-12-24T12:09:23;20.03;;;5.77;;
11222;SDS011;5668;52.012;8.724;2022-12-24T12:11:54;14.40;;;6.03;;
11222;SDS011;5668;52.012;8.724;2022-12-24T12:14:29;16.40;;;5.10;;
11222;SDS011;5668;52.012;8.724;2022-12-24T12:17:02;19.07;;;6.37;;
11222;SDS011;5668;52.012;8.724;2022-12-24T12:19:40;14.80;;;5.70;;
11222;SDS011;5668;52.012;8.724;2022-12-24T12:22:15;16.97;;;6.00;;
11222;SDS011;5668;52.012;8.724;2022-12-24T12:24:51;17.33;;;6.20;;
11222;SDS011;5668;52.012;8.724;2022-12-24T12:27:24;20.47;;;5.83;;
11222;SDS011;5668;52.012;8.724;2022-12-24T12:29:57;15.13;;;5.93;;
11222;SDS011;5668;52.012;8.724;2022-12-24T12:32:31;21.17;;;6.17;;
11222;SDS011;5668;52.012;8.724;2022-12-24T12:35:12;17.53;;;6.30;;
11222;SDS011;5668;52.012;8.724;2022-12-24T12:37:44;16.13;;;5.40;;
11222;SDS011;5668;52.012;8.724;2022-12-24T12:40:20;18.97;;;6.47;;
11222;SDS011;5668;52.012;8.724;2022-12-24T12:42:58;15.33;;;6.23;;
11222;SDS011;5668;52.012;8.724;2022-12-24T12:45:36;14.60;;;6.03;;
11222;SDS011;5668;52.012;8.724;2022-12-24T12:48:14;17.63;;;6.80;;
11222;SDS011;5668;52.012;8.724;2022-12-24T12:51:01;18.83;;;6.60;;
11222;SDS011;5668;52.012;8.724;2022-12-24T12:53:37;12.77;;;6.50;;
11222;SDS011;5668;52.012;8.724;2022-12-24T12:56:20;20.13;;;6.80;;
11222;SDS011;5668;52.012;8.724;2022-12-24T12:58:56;14.37;;;5.43;;
11222;SDS011;5668;52.012;8.724;2022-12-24T13:01:28;18.33;;;6.20;;
11222;SDS011;5668;52.012;8.724;2022-12-24T13:04:19;19.87;;;6.40;;
11222;SDS011;5668;52.012;8.724;2022-12-24T13:07:10;15.93;;;5.50;;
11222;SDS011;5668;52.012;8.724;2022-12-24T13:10:06;17.13;;;5.93;;
11222;SDS011;5668;52.012;8.724;2022-12-24T13:13:02;12.13;;;5.80;;
11222;SDS011;5668;52.012;8.724;2022-12-24T13:15:56;14.10;;;5.50;;
11222;SDS011;5668;52.012;8.724;2022-12-24T13:18:51;16.70;;;5.00;;
11222;SDS011;5668;52.012;8.724;2022-12-24T13:21:28;17.60;;;5.97;;
11222;SDS011;5668;52.012;8.724;2022-12-24T13:24:03;18.27;;;5.40;;
11222;SDS011;5668;52.012;8.724;2022-12-24T13:26:32;14.10;;;4.53;;
11222;SDS011;5668;52.012;8.724;2022-12-24T13:34:59;12.90;;;5.90;;
11222;SDS011;5668;52.012;8.724;2022-12-24T13:37:31;14.53;;;5.60;;
11222;SDS011;5668;52.012;8.724;2022-12-24T13:40:01;21.20;;;5.80;;
11222;SDS011;5668;52.012;8.724;2022-12-24T13:42:51;16.37;;;5.63;;
11222;SDS011;5668;52.012;8.724;2022-12-24T13:45:46;14.13;;;5.40;;
11222;SDS011;5668;52.012;8.724;2022-12-24T13:48:27;17.00;;;5.87;;
11222;SDS011;5668;52.012;8.724;2022-12-24T13:50:57;18.90;;;5.70;;
11222;SDS011;5668;52.012;8.724;2022-12-24T13:53:43;23.13;;;6.37;;
11222;SDS011;5668;52.012;8.724;2022-12-24T13:56:19;13.63;;;5.40;;
11222;SDS011;5668;52.012;8.724;2022-12-24T13:58:51;17.90;;;5.97;;
11222;SDS011;5668;52.012;8.724;2022-12-24T14:01:36;13.57;;;5.30;;
11222;SDS011;5668;52.012;8.724;2022-12-24T14:04:07;17.43;;;5.77;;
11222;SDS011;5668;52.012;8.724;2022-12-24T14:06:47;14.63;;;5.47;;
11222;SDS011;5668;52.012;8.724;2022-12-24T14:09:18;15.20;;;5.40;;
11222;SDS011;5668;52.012;8.724;2022-12-24T14:14:52;21.23;;;5.97;;
11222;SDS011;5668;52.012;8.724;2022-12-24T14:17:21;18.50;;;5.83;;
11222;SDS011;5668;52.012;8.724;2022-12-24T14:19:50;15.27;;;5.67;;
11222;SDS011;5668;52.012;8.724;2022-12-24T14:22:23;18.53;;;6.20;;
11222;SDS011;5668;52.012;8.724;2022-12-24T14:24:54;19.63;;;5.83;;
11222;SDS011;5668;52.012;8.724;2022-12-24T14:27:24;15.37;;;5.60;;
11222;SDS011;5668;52.012;8.724;2022-12-24T14:29:59;22.23;;;6.50;;
11222;SDS011;5668;52.012;8.724;2022-12-24T14:32:34;16.50;;;6.37;;
11222;SDS011;5668;52.012;8.724;2022-12-24T14:35:07;15.27;;;5.20;;
11222;SDS011;5668;52.012;8.724;2022-12-24T14:37:40;13.83;;;5.47;;
11222;SDS011;5668;52.012;8.724;2022-12-24T14:40:13;15.80;;;5.60;;
11222;SDS011;5668;52.012;8.724;2022-12-24T14:42:45;15.10;;;5.40;;
11222;SDS011;5668;52.012;8.724;2022-12-24T14:45:23;15.37;;;5.83;;
11222;SDS011;5668;52.012;8.724;2022-12-24T14:48:00;21.17;;;5.53;;
11222;SDS011;5668;52.012;8.724;2022-12-24T14:50:39;17.50;;;5.13;;
11222;SDS011;5668;52.012;8.724;2022-12-24T14:53:27;17.07;;;5.67;;
11222;SDS011;5668;52.012;8.724;2022-12-24T14:56:13;18.47;;;5.80;;
11222;SDS011;5668;52.012;8.724;2022-12-24T14:58:42;18.23;;;6.10;;
11222;SDS011;5668;52.012;8.724;2022-12-24T15:04:00;16.60;;;5.63;;
11222;SDS011;5668;52.012;8.724;2022-12-24T15:06:28;18.13;;;5.40;;
11222;SDS011;5668;52.012;8.724;2022-12-24T15:08:59;17.87;;;6.23;;
11222;SDS011;5668;52.012;8.724;2022-12-24T15:11:26;16.67;;;6.33;;
11222;SDS011;5668;52.012;8.724;2022-12-24T15:13:54;16.73;;;6.90;;
11222;SDS011;5668;52.012;8.724;2022-12-24T15:16:25;17.10;;;6.30;;
11222;SDS011;5668;52.012;8.724;2022-12-24T15:18:56;20.60;;;6.67;;
11222;SDS011;5668;52.012;8.724;2022-12-24T15:21:29;14.63;;;5.93;;
11222;SDS011;5668;52.012;8.724;2022-12-24T15:23:57;22.03;;;6.93;;
11222;SDS011;5668;52.012;8.724;2022-12-24T15:26:25;15.17;;;6.50;;
11222;SDS011;5668;52.012;8.724;2022-12-24T15:28:54;15.27;;;6.67;;
11222;SDS011;5668;52.012;8.724;2022-12-24T15:31:24;15.43;;;6.13;;
11222;SDS011;5668;52.012;8.724;2022-12-24T15:33:53;17.40;;;6.60;;
11222;SDS011;5668;52.012;8.724;2022-12-24T15:36:26;17.63;;;6.17;;